KHAI/HAI METAR and TAF weather

Enter ICAO airport designator
Station Type Date Time Source
KHAI METAR 2020/01/19 14:36 UTC NOAA

KHAI 191436Z AUTO 24006KT 2SM -SN SCT017 OVC025 M12/M15 A3014 RMK AO2 T11221153


Station Type Date Time Source
KHAI Decoded METAR 2020/01/19 14:36 UTC NOAA

Station name not available
Jan 19, 2020 - 09:36 AM EST / 2020.01.19 1436 UTC
Wind: from the WSW (240 degrees) at 7 MPH (6 KT):0
Visibility: 2 mile(s):0
Sky conditions: overcast
Weather: light snow
Temperature: 10.0 F (-12.2 C)
Windchill: 0 F (-18 C):1
Dew Point: 4.5 F (-15.3 C)
Relative Humidity: 77%
Pressure (altimeter): 30.14 in. Hg (1020 hPa)
ob: KHAI 191436Z AUTO 24006KT 2SM -SN SCT017 OVC025 M12/M15 A3014 RMK AO2 T11221153
cycle: 14

Station Type Date Time Source
KHAI TAF UTC NOAA

Error!

Example: see airport list